Time;durP1;ratioP1;P1;durP2;ratioP2;P2;SDS_P1;SDS_P2;PMS_P1;PMS_P2;Temp;Humidity;BMP_temperature;BMP_pressure;BME280_temperature;BME280_humidity;BME280_pressure;Samples;Min_cycle;Max_cycle;Signal;HPM_P1;HPM_P2
2022/06/09 00:01:11;;;;;;;0.60;0.60;;;;;;;;;;5065117;28;20201;-69
2022/06/09 00:03:40;;;;;;;4.10;0.60;;;;;;;;;;5065044;28;20204;-69
2022/06/09 00:06:09;;;;;;;0.80;0.80;;;;;;;;;;5064616;28;20259;-69
2022/06/09 00:08:36;;;;;;;2.28;0.65;;;;;;;;;;5065038;28;20197;-69
2022/06/09 00:11:06;;;;;;;0.70;0.70;;;;;;;;;;5064924;28;20201;-69
2022/06/09 00:13:33;;;;;;;1.83;0.80;;;;;;;;;;5064977;28;20373;-69
2022/06/09 00:16:00;;;;;;;2.33;0.75;;;;;;;;;;5064629;28;20197;-69
2022/06/09 00:18:28;;;;;;;2.15;0.80;;;;;;;;;;5064459;28;20420;-69
2022/06/09 00:20:54;;;;;;;0.63;0.63;;;;;;;;;;5064600;28;20197;-69
2022/06/09 00:23:20;;;;;;;0.73;0.50;;;;;;;;;;5064572;28;20217;-69
2022/06/09 00:25:47;;;;;;;1.45;0.60;;;;;;;;;;5064609;28;20497;-69
2022/06/09 00:28:13;;;;;;;2.25;0.70;;;;;;;;;;5064276;28;20205;-69
2022/06/09 00:30:40;;;;;;;0.55;0.55;;;;;;;;;;5064540;28;20201;-69
2022/06/09 00:33:06;;;;;;;1.65;0.60;;;;;;;;;;5064250;28;20523;-69
2022/06/09 00:35:34;;;;;;;1.25;0.63;;;;;;;;;;5064674;28;20385;-69
2022/06/09 00:38:00;;;;;;;1.50;0.60;;;;;;;;;;5064197;28;20205;-69
2022/06/09 00:40:27;;;;;;;1.02;0.50;;;;;;;;;;5064412;28;20537;-69
2022/06/09 00:42:53;;;;;;;1.55;0.70;;;;;;;;;;5064190;28;20240;-69
2022/06/09 00:45:28;;;;;;;3.28;0.77;;;;;;;;;;5064165;28;20205;-69
2022/06/09 00:47:58;;;;;;;0.70;0.70;;;;;;;;;;5064161;28;20185;-69
2022/06/09 00:50:25;;;;;;;0.80;0.80;;;;;;;;;;5064312;28;20208;-69
2022/06/09 00:52:55;;;;;;;2.13;0.68;;;;;;;;;;5064307;28;20193;-69
2022/06/09 00:55:23;;;;;;;2.08;0.60;;;;;;;;;;5064061;28;20211;-69
2022/06/09 00:57:51;;;;;;;1.27;0.90;;;;;;;;;;5062879;28;20204;-69
2022/06/09 01:00:21;;;;;;;0.75;0.57;;;;;;;;;;5063847;28;20193;-69
2022/06/09 01:02:48;;;;;;;1.13;0.73;;;;;;;;;;5063987;28;20221;-69
2022/06/09 01:05:16;;;;;;;1.75;0.60;;;;;;;;;;5063865;28;20416;-69
2022/06/09 01:07:45;;;;;;;1.90;0.68;;;;;;;;;;5063524;28;20219;-69
2022/06/09 01:10:13;;;;;;;2.70;0.57;;;;;;;;;;5063827;28;20197;-69
2022/06/09 01:12:41;;;;;;;3.72;0.85;;;;;;;;;;5063599;28;20197;-69
2022/06/09 01:15:09;;;;;;;1.58;0.88;;;;;;;;;;5063953;28;20302;-69
2022/06/09 01:17:42;;;;;;;2.65;0.90;;;;;;;;;;5063403;28;20264;-69
2022/06/09 01:20:23;;;;;;;0.70;0.70;;;;;;;;;;5063662;28;20519;-69
2022/06/09 01:22:57;;;;;;;5.07;1.08;;;;;;;;;;5063849;28;20391;-69
2022/06/09 01:25:36;;;;;;;0.90;0.90;;;;;;;;;;5063368;28;20197;-69
2022/06/09 01:28:12;;;;;;;0.93;0.50;;;;;;;;;;5063384;28;20384;-69
2022/06/09 01:30:42;;;;;;;1.13;0.40;;;;;;;;;;5063386;28;20203;-69
2022/06/09 01:33:11;;;;;;;0.30;0.30;;;;;;;;;;5063330;28;20201;-69
2022/06/09 01:35:42;;;;;;;1.38;0.45;;;;;;;;;;5063223;28;20334;-69
2022/06/09 01:38:08;;;;;;;1.42;0.35;;;;;;;;;;5062924;28;20204;-69
2022/06/09 01:40:36;;;;;;;0.47;0.40;;;;;;;;;;5063307;28;20415;-69
2022/06/09 01:43:04;;;;;;;0.70;0.40;;;;;;;;;;5062254;28;20255;-69
2022/06/09 01:45:35;;;;;;;0.50;0.50;;;;;;;;;;5063331;28;20572;-69
2022/06/09 01:48:04;;;;;;;0.90;0.30;;;;;;;;;;5062958;28;20197;-69
2022/06/09 01:50:32;;;;;;;0.40;0.40;;;;;;;;;;5063005;28;20411;-69
2022/06/09 01:53:00;;;;;;;0.52;0.35;;;;;;;;;;5063002;28;20197;-69
2022/06/09 01:55:27;;;;;;;0.95;0.40;;;;;;;;;;5062784;28;20519;-69
2022/06/09 01:57:57;;;;;;;0.52;0.30;;;;;;;;;;5062880;28;20203;-69
2022/06/09 02:00:25;;;;;;;0.20;0.20;;;;;;;;;;5062743;28;20260;-69
2022/06/09 02:02:54;;;;;;;0.20;0.20;;;;;;;;;;5062810;28;20221;-69
2022/06/09 02:05:23;;;;;;;0.40;0.40;;;;;;;;;;5062625;28;20224;-69
2022/06/09 02:07:51;;;;;;;2.55;0.32;;;;;;;;;;5062364;28;20500;-69
2022/06/09 02:10:18;;;;;;;0.85;0.30;;;;;;;;;;5062505;28;20519;-69
2022/06/09 02:12:45;;;;;;;0.77;0.40;;;;;;;;;;5062838;28;20497;-69
2022/06/09 02:15:14;;;;;;;0.55;0.55;;;;;;;;;;5062659;28;20515;-69
2022/06/09 02:17:43;;;;;;;1.95;0.52;;;;;;;;;;5062284;28;20204;-69
2022/06/09 02:20:10;;;;;;;0.40;0.40;;;;;;;;;;5062641;28;20497;-69
2022/06/09 02:22:37;;;;;;;0.43;0.32;;;;;;;;;;5062242;28;20217;-69
2022/06/09 02:25:04;;;;;;;0.60;0.60;;;;;;;;;;5062360;28;20197;-69
2022/06/09 02:27:30;;;;;;;1.85;0.40;;;;;;;;;;5062400;28;20197;-69
2022/06/09 02:29:56;;;;;;;1.40;0.32;;;;;;;;;;5062671;28;20197;-69
2022/06/09 02:32:23;;;;;;;0.60;0.60;;;;;;;;;;5062473;28;20465;-69
2022/06/09 02:34:49;;;;;;;1.27;0.43;;;;;;;;;;5062311;28;20213;-69
2022/06/09 02:37:15;;;;;;;0.95;0.65;;;;;;;;;;5061940;28;20374;-69
2022/06/09 02:39:43;;;;;;;4.05;0.40;;;;;;;;;;5062465;28;20380;-69
2022/06/09 02:42:09;;;;;;;2.85;0.57;;;;;;;;;;5062354;28;20220;-69
2022/06/09 02:44:36;;;;;;;3.90;0.43;;;;;;;;;;5062377;28;20197;-69
2022/06/09 02:47:02;;;;;;;0.57;0.40;;;;;;;;;;5061994;28;20204;-69
2022/06/09 02:49:28;;;;;;;0.55;0.50;;;;;;;;;;5062175;28;20197;-69
2022/06/09 02:51:55;;;;;;;0.40;0.40;;;;;;;;;;5062026;28;20196;-69
2022/06/09 02:54:21;;;;;;;1.30;0.60;;;;;;;;;;5062056;28;20204;-69
2022/06/09 02:56:49;;;;;;;0.57;0.50;;;;;;;;;;5062005;28;20504;-69
2022/06/09 02:59:15;;;;;;;0.95;0.57;;;;;;;;;;5062313;28;20196;-69
2022/06/09 03:01:41;;;;;;;3.92;0.90;;;;;;;;;;5062051;28;20204;-69
2022/06/09 03:04:08;;;;;;;1.08;0.68;;;;;;;;;;5061843;28;20217;-69
2022/06/09 03:06:35;;;;;;;0.95;0.60;;;;;;;;;;5061758;28;20443;-69
2022/06/09 03:09:01;;;;;;;0.75;0.73;;;;;;;;;;5062029;28;20196;-69
2022/06/09 03:11:28;;;;;;;1.33;0.93;;;;;;;;;;5062199;28;20268;-69
2022/06/09 03:13:55;;;;;;;4.38;0.70;;;;;;;;;;5062063;28;20200;-69
2022/06/09 03:16:22;;;;;;;2.70;0.65;;;;;;;;;;5061730;28;20197;-69
2022/06/09 03:18:48;;;;;;;1.73;0.68;;;;;;;;;;5061819;28;20197;-69
2022/06/09 03:21:14;;;;;;;1.70;0.73;;;;;;;;;;5065115;28;20197;-69
2022/06/09 03:23:41;;;;;;;1.00;0.60;;;;;;;;;;5065875;28;20217;-69
2022/06/09 03:26:07;;;;;;;0.70;0.70;;;;;;;;;;5065723;28;20208;-69
2022/06/09 03:28:34;;;;;;;3.08;1.20;;;;;;;;;;5065775;28;20197;-69
2022/06/09 03:31:01;;;;;;;0.80;0.77;;;;;;;;;;5065730;28;20264;-69
2022/06/09 03:33:28;;;;;;;1.85;0.70;;;;;;;;;;5065516;28;20201;-69
2022/06/09 03:35:54;;;;;;;1.85;0.85;;;;;;;;;;5065748;28;20201;-69
2022/06/09 03:38:20;;;;;;;1.38;0.70;;;;;;;;;;5065445;28;20197;-69
2022/06/09 03:40:47;;;;;;;2.10;0.77;;;;;;;;;;5065527;28;20201;-69
2022/06/09 03:43:13;;;;;;;2.85;0.82;;;;;;;;;;5065359;28;20297;-69
2022/06/09 03:45:39;;;;;;;1.27;0.77;;;;;;;;;;5065346;28;20197;-69
2022/06/09 03:48:07;;;;;;;1.75;0.75;;;;;;;;;;5065056;28;20520;-69
2022/06/09 03:50:34;;;;;;;1.00;0.90;;;;;;;;;;5065435;28;20429;-69
2022/06/09 03:53:00;;;;;;;0.73;0.70;;;;;;;;;;5065376;28;20207;-69
2022/06/09 03:55:26;;;;;;;1.00;0.90;;;;;;;;;;5065321;28;20201;-69
2022/06/09 03:57:52;;;;;;;3.78;0.90;;;;;;;;;;5064891;28;20197;-69
2022/06/09 04:00:21;;;;;;;1.10;1.00;;;;;;;;;;5065119;28;20220;-69
2022/06/09 04:02:47;;;;;;;1.63;0.70;;;;;;;;;;5064893;28;20217;-69
2022/06/09 04:05:15;;;;;;;1.58;1.13;;;;;;;;;;5065091;28;20225;-69
2022/06/09 04:07:41;;;;;;;1.90;0.98;;;;;;;;;;5064881;28;20197;-69
2022/06/09 04:10:09;;;;;;;1.13;0.90;;;;;;;;;;5065027;28;20461;-69
2022/06/09 04:12:35;;;;;;;1.60;0.80;;;;;;;;;;5064846;28;20196;-69
2022/06/09 04:15:01;;;;;;;0.85;0.70;;;;;;;;;;5064744;28;20505;-69
2022/06/09 04:17:28;;;;;;;1.90;0.98;;;;;;;;;;5064496;28;20200;-70
2022/06/09 04:19:54;;;;;;;1.00;0.60;;;;;;;;;;5064815;28;20205;-70
2022/06/09 04:22:22;;;;;;;5.38;0.90;;;;;;;;;;5064759;28;20528;-70
2022/06/09 04:24:48;;;;;;;0.82;0.82;;;;;;;;;;5064814;28;20204;-69
2022/06/09 04:27:14;;;;;;;1.58;0.73;;;;;;;;;;5064531;28;20216;-70
2022/06/09 04:29:40;;;;;;;0.93;0.90;;;;;;;;;;5065582;28;20197;-71
2022/06/09 04:32:07;;;;;;;1.98;0.85;;;;;;;;;;5066186;28;20207;-70
2022/06/09 04:34:33;;;;;;;2.20;0.90;;;;;;;;;;5064818;28;20435;-69
2022/06/09 04:36:59;;;;;;;2.60;0.98;;;;;;;;;;5064234;28;20197;-70
2022/06/09 04:39:27;;;;;;;1.45;1.05;;;;;;;;;;5064697;28;20520;-70
2022/06/09 04:41:53;;;;;;;2.15;1.10;;;;;;;;;;5064506;28;20366;-69
2022/06/09 04:44:20;;;;;;;3.90;0.95;;;;;;;;;;5064381;28;20458;-70
2022/06/09 04:46:46;;;;;;;4.32;1.23;;;;;;;;;;5064548;28;20201;-70
2022/06/09 04:49:12;;;;;;;5.15;1.33;;;;;;;;;;5064452;28;20213;-70
2022/06/09 04:51:38;;;;;;;2.67;1.20;;;;;;;;;;5064447;28;20208;-70
2022/06/09 04:54:05;;;;;;;3.25;1.10;;;;;;;;;;5064265;28;20197;-70
2022/06/09 04:56:32;;;;;;;4.20;1.60;;;;;;;;;;5064119;28;20385;-70
2022/06/09 04:58:59;;;;;;;3.47;1.50;;;;;;;;;;5064187;28;20532;-70
2022/06/09 05:01:27;;;;;;;3.40;1.83;;;;;;;;;;5064713;28;20201;-69
2022/06/09 05:03:54;;;;;;;5.28;1.65;;;;;;;;;;5063913;28;20221;-70
2022/06/09 05:06:20;;;;;;;4.47;1.65;;;;;;;;;;5063840;28;20223;-70
2022/06/09 05:08:47;;;;;;;2.50;1.65;;;;;;;;;;5063889;28;20201;-70
2022/06/09 05:11:13;;;;;;;2.15;1.60;;;;;;;;;;5063764;28;20201;-70
2022/06/09 05:13:41;;;;;;;3.25;1.20;;;;;;;;;;5063775;28;20397;-69
2022/06/09 05:16:08;;;;;;;3.75;0.93;;;;;;;;;;5063640;28;20201;-70
2022/06/09 05:18:35;;;;;;;2.28;1.00;;;;;;;;;;5063997;28;20556;-70
2022/06/09 05:21:01;;;;;;;3.80;1.33;;;;;;;;;;5063985;28;20212;-69
2022/06/09 05:23:28;;;;;;;2.65;1.30;;;;;;;;;;5063734;28;20284;-69
2022/06/09 05:25:55;;;;;;;2.15;1.00;;;;;;;;;;5063527;28;20197;-70
2022/06/09 05:28:22;;;;;;;2.83;1.10;;;;;;;;;;5063839;28;20209;-70
2022/06/09 05:30:50;;;;;;;5.30;1.35;;;;;;;;;;5063891;28;20201;-70
2022/06/09 05:33:16;;;;;;;3.67;1.33;;;;;;;;;;5063883;28;20193;-70
2022/06/09 05:35:43;;;;;;;6.10;1.63;;;;;;;;;;5063691;28;20505;-69
2022/06/09 05:46:24;;;;;;;1.75;1.00;;;;;;;;;;5063148;28;20223;-70
2022/06/09 05:48:50;;;;;;;3.10;0.95;;;;;;;;;;5063130;28;20197;-70
2022/06/09 05:51:17;;;;;;;5.85;1.17;;;;;;;;;;5063175;28;20212;-69
2022/06/09 05:53:44;;;;;;;7.95;1.10;;;;;;;;;;5063390;28;20193;-70
2022/06/09 05:56:10;;;;;;;2.58;0.82;;;;;;;;;;5063111;28;20269;-70
2022/06/09 05:58:37;;;;;;;4.18;1.15;;;;;;;;;;5063018;28;20251;-69
2022/06/09 06:01:04;;;;;;;5.40;1.38;;;;;;;;;;5063651;28;20197;-70
2022/06/09 06:03:32;;;;;;;5.25;0.95;;;;;;;;;;5062411;28;20447;-67
2022/06/09 06:08:42;;;;;;;3.35;1.05;;;;;;;;;;5054672;28;20524;-68
2022/06/09 06:11:09;;;;;;;4.22;1.00;;;;;;;;;;5050086;28;20218;-67
2022/06/09 06:13:35;;;;;;;2.50;0.93;;;;;;;;;;5051568;28;20516;-68
2022/06/09 06:16:01;;;;;;;3.80;1.10;;;;;;;;;;5053669;28;20213;-68
2022/06/09 06:18:28;;;;;;;2.20;1.00;;;;;;;;;;5045099;28;20237;-68
2022/06/09 06:20:56;;;;;;;4.03;0.90;;;;;;;;;;5056804;28;20323;-68
2022/06/09 06:23:22;;;;;;;1.27;0.70;;;;;;;;;;5044175;28;20275;-68
2022/06/09 06:25:49;;;;;;;1.90;1.20;;;;;;;;;;5036813;28;20225;-68
2022/06/09 06:28:15;;;;;;;1.85;0.95;;;;;;;;;;5043005;28;20213;-68
2022/06/09 06:30:41;;;;;;;4.45;1.00;;;;;;;;;;5056845;28;20209;-69
2022/06/09 06:33:08;;;;;;;2.15;1.08;;;;;;;;;;5056800;28;20276;-60
2022/06/09 06:35:34;;;;;;;2.88;1.05;;;;;;;;;;5055975;28;20209;-61
2022/06/09 06:38:02;;;;;;;1.67;0.90;;;;;;;;;;5053102;28;20469;-60
2022/06/09 06:40:28;;;;;;;2.53;1.20;;;;;;;;;;5056349;28;20433;-61
2022/06/09 06:42:54;;;;;;;6.15;0.90;;;;;;;;;;5056323;28;20573;-60
2022/06/09 06:45:21;;;;;;;3.03;0.70;;;;;;;;;;5055929;28;20235;-60
2022/06/09 06:47:47;;;;;;;3.20;1.00;;;;;;;;;;5056330;28;20216;-62
2022/06/09 06:50:14;;;;;;;3.60;1.17;;;;;;;;;;5055582;28;20534;-60
2022/06/09 06:52:41;;;;;;;2.00;1.00;;;;;;;;;;5056290;28;20224;-60
2022/06/09 06:55:12;;;;;;;4.85;1.13;;;;;;;;;;5057472;28;20501;-58
2022/06/09 06:57:38;;;;;;;5.70;1.10;;;;;;;;;;5060292;28;20209;-60
2022/06/09 07:00:05;;;;;;;3.20;1.17;;;;;;;;;;5060117;28;20232;-60
2022/06/09 07:02:31;;;;;;;2.22;0.93;;;;;;;;;;5060850;28;20549;-60
2022/06/09 07:04:58;;;;;;;3.20;1.10;;;;;;;;;;5060137;28;20666;-61
2022/06/09 07:07:24;;;;;;;3.35;0.90;;;;;;;;;;5060307;28;20536;-61
2022/06/09 07:09:51;;;;;;;5.13;1.08;;;;;;;;;;5060062;28;20209;-61
2022/06/09 07:12:19;;;;;;;1.88;0.98;;;;;;;;;;5060332;28;20205;-61
2022/06/09 07:14:45;;;;;;;3.92;1.00;;;;;;;;;;5060194;28;20500;-61
2022/06/09 07:17:11;;;;;;;3.17;1.00;;;;;;;;;;5059988;28;20216;-60
2022/06/09 07:19:38;;;;;;;5.75;1.00;;;;;;;;;;5060151;28;20213;-61
2022/06/09 07:22:04;;;;;;;4.68;1.08;;;;;;;;;;5041171;28;20217;-62
2022/06/09 07:24:31;;;;;;;3.38;0.93;;;;;;;;;;5039670;28;20229;-60
2022/06/09 07:26:57;;;;;;;3.70;0.90;;;;;;;;;;5039762;28;20217;-60
2022/06/09 07:29:25;;;;;;;5.30;1.00;;;;;;;;;;5040014;28;20224;-59
2022/06/09 07:31:52;;;;;;;5.97;1.15;;;;;;;;;;5039506;28;20260;-60
2022/06/09 07:34:18;;;;;;;2.25;0.98;;;;;;;;;;5039640;28;20201;-60
2022/06/09 07:36:45;;;;;;;5.88;0.88;;;;;;;;;;5039359;28;20217;-60
2022/06/09 07:39:11;;;;;;;5.60;1.35;;;;;;;;;;5039629;28;20209;-60
2022/06/09 07:41:37;;;;;;;6.45;1.40;;;;;;;;;;5039484;28;20237;-60
2022/06/09 07:44:05;;;;;;;8.13;1.00;;;;;;;;;;5039610;28;20237;-60
2022/06/09 07:46:33;;;;;;;5.05;1.10;;;;;;;;;;5039357;28;20210;-60
2022/06/09 07:48:59;;;;;;;4.82;0.90;;;;;;;;;;5039516;28;20213;-60
2022/06/09 07:51:26;;;;;;;4.38;0.88;;;;;;;;;;5039607;28;20213;-60
2022/06/09 07:53:52;;;;;;;2.90;0.80;;;;;;;;;;5040000;28;20206;-59
2022/06/09 07:56:19;;;;;;;6.68;1.30;;;;;;;;;;5039203;28;20210;-59
2022/06/09 07:58:45;;;;;;;5.68;0.80;;;;;;;;;;5039553;28;20216;-60
2022/06/09 08:01:11;;;;;;;4.13;0.98;;;;;;;;;;5039262;28;20301;-59
2022/06/09 08:03:41;;;;;;;5.03;0.90;;;;;;;;;;5039144;28;20245;-60
2022/06/09 08:06:07;;;;;;;8.85;0.90;;;;;;;;;;5038325;28;20276;-59
2022/06/09 08:08:34;;;;;;;2.78;0.95;;;;;;;;;;5039057;28;20210;-59
2022/06/09 08:11:00;;;;;;;6.03;1.17;;;;;;;;;;5039115;28;20217;-60
2022/06/09 08:13:27;;;;;;;3.55;1.05;;;;;;;;;;5040644;28;20217;-60
2022/06/09 08:15:53;;;;;;;4.35;1.10;;;;;;;;;;5038994;28;20552;-59
2022/06/09 08:18:20;;;;;;;6.63;1.20;;;;;;;;;;5039064;28;20251;-60
2022/06/09 08:20:47;;;;;;;2.25;1.00;;;;;;;;;;5039560;28;20209;-60
2022/06/09 08:23:15;;;;;;;4.93;0.95;;;;;;;;;;5038508;28;20218;-59
2022/06/09 08:25:43;;;;;;;4.05;1.02;;;;;;;;;;5038725;28;20429;-60
2022/06/09 08:28:10;;;;;;;4.60;1.27;;;;;;;;;;5038394;28;20210;-58
2022/06/09 08:30:37;;;;;;;4.03;0.93;;;;;;;;;;5038802;28;20217;-59
2022/06/09 08:33:03;;;;;;;4.28;1.00;;;;;;;;;;5038857;28;20217;-60
2022/06/09 08:35:30;;;;;;;5.32;1.88;;;;;;;;;;5056512;28;20213;-60
2022/06/09 08:37:57;;;;;;;4.35;0.98;;;;;;;;;;5058451;28;20216;-60
2022/06/09 08:40:25;;;;;;;2.72;0.85;;;;;;;;;;5058814;28;20213;-60
2022/06/09 08:43:01;;;;;;;2.85;0.85;;;;;;;;;;5058506;28;20208;-60
2022/06/09 08:45:29;;;;;;;4.38;0.80;;;;;;;;;;5057756;28;20232;-60
2022/06/09 08:47:56;;;;;;;6.22;1.10;;;;;;;;;;5058189;28;20544;-60
2022/06/09 08:50:25;;;;;;;2.33;1.00;;;;;;;;;;5058332;28;20524;-59
2022/06/09 08:52:53;;;;;;;2.30;0.73;;;;;;;;;;5058413;28;20216;-60
2022/06/09 08:55:35;;;;;;;6.85;1.23;;;;;;;;;;5057579;28;20587;-61
2022/06/09 08:58:04;;;;;;;4.95;0.90;;;;;;;;;;5057737;28;20205;-60
2022/06/09 09:00:34;;;;;;;4.22;0.85;;;;;;;;;;5057917;28;20201;-60
2022/06/09 09:03:03;;;;;;;3.70;0.85;;;;;;;;;;5058102;28;20251;-60
2022/06/09 09:05:33;;;;;;;3.55;1.13;;;;;;;;;;5057085;28;20236;-60
2022/06/09 09:08:01;;;;;;;5.00;1.10;;;;;;;;;;5057845;28;20216;-60
2022/06/09 09:10:32;;;;;;;5.15;1.23;;;;;;;;;;5058107;28;20534;-60
2022/06/09 09:13:10;;;;;;;4.20;1.33;;;;;;;;;;5057803;28;20263;-59
2022/06/09 09:15:39;;;;;;;3.08;0.95;;;;;;;;;;5057709;28;20572;-59
2022/06/09 09:18:15;;;;;;;3.70;0.70;;;;;;;;;;5057380;28;20471;-60
2022/06/09 09:20:46;;;;;;;4.80;2.30;;;;;;;;;;5057913;28;20209;-59
2022/06/09 09:23:15;;;;;;;5.38;1.10;;;;;;;;;;5057872;28;20544;-58
2022/06/09 09:25:44;;;;;;;1.17;0.68;;;;;;;;;;5057534;28;20229;-59
2022/06/09 09:28:15;;;;;;;4.88;1.08;;;;;;;;;;5037533;28;20217;-60
2022/06/09 09:30:45;;;;;;;2.33;0.93;;;;;;;;;;5044281;28;20213;-60
2022/06/09 09:33:15;;;;;;;2.33;0.80;;;;;;;;;;5057387;28;20209;-59
2022/06/09 09:35:43;;;;;;;2.35;1.10;;;;;;;;;;5057292;28;20240;-59
2022/06/09 09:38:10;;;;;;;2.15;0.82;;;;;;;;;;5040317;28;20313;-60
2022/06/09 09:40:39;;;;;;;4.40;1.65;;;;;;;;;;5037542;28;20287;-60
2022/06/09 09:43:06;;;;;;;2.63;0.98;;;;;;;;;;5037231;28;20210;-58
2022/06/09 09:45:36;;;;;;;4.90;2.95;;;;;;;;;;5036797;28;20603;-61
2022/06/09 09:48:04;;;;;;;2.72;0.80;;;;;;;;;;5036559;28;20213;-60
2022/06/09 09:50:38;;;;;;;1.73;0.88;;;;;;;;;;5037212;28;20279;-60
2022/06/09 09:53:08;;;;;;;10.27;4.43;;;;;;;;;;5037143;28;20312;-60
2022/06/09 09:55:40;;;;;;;3.83;1.02;;;;;;;;;;5036537;28;20206;-59
2022/06/09 09:58:20;;;;;;;3.35;0.93;;;;;;;;;;5036729;28;20461;-59
2022/06/09 10:00:49;;;;;;;5.45;1.10;;;;;;;;;;5037642;28;20513;-60
2022/06/09 10:08:45;;;;;;;3.13;0.60;;;;;;;;;;5036762;28;20232;-59
2022/06/09 10:14:00;;;;;;;6.57;0.98;;;;;;;;;;5044341;28;20217;-60
2022/06/09 10:16:30;;;;;;;1.40;0.80;;;;;;;;;;5035986;28;20205;-60
2022/06/09 10:18:59;;;;;;;4.68;1.08;;;;;;;;;;5036971;28;20214;-60
2022/06/09 10:21:26;;;;;;;1.65;0.77;;;;;;;;;;5036902;28;20210;-60
2022/06/09 10:23:55;;;;;;;1.00;0.60;;;;;;;;;;5037101;28;20513;-60
2022/06/09 10:26:23;;;;;;;2.15;0.75;;;;;;;;;;5036811;28;20229;-60
2022/06/09 10:28:54;;;;;;;4.53;1.05;;;;;;;;;;5038173;28;20290;-60
2022/06/09 10:31:28;;;;;;;3.50;0.77;;;;;;;;;;5056709;28;20251;-59
2022/06/09 10:33:58;;;;;;;3.40;0.73;;;;;;;;;;5056576;28;20291;-60
2022/06/09 10:36:27;;;;;;;1.98;0.80;;;;;;;;;;5056116;28;20205;-60
2022/06/09 10:38:56;;;;;;;7.45;1.25;;;;;;;;;;5056404;28;20213;-60
2022/06/09 10:41:26;;;;;;;1.65;0.60;;;;;;;;;;5056223;28;20216;-60
2022/06/09 10:43:57;;;;;;;3.20;1.33;;;;;;;;;;5056521;28;20211;-60
2022/06/09 10:46:29;;;;;;;1.60;0.55;;;;;;;;;;5055995;28;20229;-60
2022/06/09 10:57:15;;;;;;;2.03;0.80;;;;;;;;;;5056504;28;20244;-60
2022/06/09 10:59:44;;;;;;;2.58;0.80;;;;;;;;;;5056517;28;20207;-59
2022/06/09 11:02:14;;;;;;;2.42;0.85;;;;;;;;;;5055995;28;20868;-60
2022/06/09 11:04:41;;;;;;;0.90;0.60;;;;;;;;;;5055886;28;20678;-60
2022/06/09 11:07:14;;;;;;;3.50;0.90;;;;;;;;;;5056101;28;20526;-59
2022/06/09 11:09:48;;;;;;;6.93;1.10;;;;;;;;;;5056224;28;20209;-60
2022/06/09 11:12:18;;;;;;;6.35;0.98;;;;;;;;;;5056092;28;20219;-60
2022/06/09 11:14:51;;;;;;;3.17;0.90;;;;;;;;;;5055902;28;20209;-60
2022/06/09 11:17:26;;;;;;;2.75;0.95;;;;;;;;;;5056021;28;20219;-59
2022/06/09 11:20:00;;;;;;;4.53;0.85;;;;;;;;;;5055849;28;20227;-59
2022/06/09 11:22:31;;;;;;;2.20;0.82;;;;;;;;;;5044325;28;20548;-60
2022/06/09 11:25:00;;;;;;;2.70;0.95;;;;;;;;;;5035850;28;20233;-59
2022/06/09 11:27:30;;;;;;;2.17;0.90;;;;;;;;;;5035966;28;20210;-60
2022/06/09 11:30:03;;;;;;;2.20;0.80;;;;;;;;;;5036149;28;20518;-60
2022/06/09 11:32:31;;;;;;;2.70;0.60;;;;;;;;;;5035680;28;20225;-60
2022/06/09 11:35:03;;;;;;;5.13;1.00;;;;;;;;;;5036129;28;20238;-60
2022/06/09 11:37:37;;;;;;;4.78;0.73;;;;;;;;;;5036025;28;20224;-60
2022/06/09 11:40:07;;;;;;;3.38;0.80;;;;;;;;;;5036494;28;20209;-60
2022/06/09 11:42:49;;;;;;;3.00;0.75;;;;;;;;;;5039465;28;20285;-60
2022/06/09 11:45:21;;;;;;;3.17;0.85;;;;;;;;;;5039374;28;20232;-60
2022/06/09 11:47:47;;;;;;;1.42;0.70;;;;;;;;;;5039758;28;20217;-59
2022/06/09 11:50:17;;;;;;;4.35;0.93;;;;;;;;;;5039621;28;20217;-60
2022/06/09 11:52:47;;;;;;;2.40;0.65;;;;;;;;;;5038917;28;20216;-60
2022/06/09 11:55:27;;;;;;;5.55;0.75;;;;;;;;;;5038964;28;20212;-60
2022/06/09 11:57:53;;;;;;;4.13;0.70;;;;;;;;;;5039140;28;20212;-60
2022/06/09 12:00:39;;;;;;;4.88;2.10;;;;;;;;;;5039399;28;20417;-60
2022/06/09 12:03:23;;;;;;;3.60;0.80;;;;;;;;;;5038777;28;20210;-60
2022/06/09 12:05:52;;;;;;;4.00;1.00;;;;;;;;;;5031782;28;20280;-59
2022/06/09 12:08:25;;;;;;;4.15;0.70;;;;;;;;;;5039016;28;20286;-60
2022/06/09 12:11:08;;;;;;;2.35;0.80;;;;;;;;;;5039402;28;20407;-60
2022/06/09 12:13:37;;;;;;;3.65;1.13;;;;;;;;;;5051262;28;20516;-60
2022/06/09 12:16:05;;;;;;;3.83;0.70;;;;;;;;;;5038589;28;20220;-60
2022/06/09 12:18:36;;;;;;;4.00;1.00;;;;;;;;;;5039071;28;20236;-60
2022/06/09 12:21:06;;;;;;;3.65;1.10;;;;;;;;;;5038910;28;20209;-60
2022/06/09 12:23:36;;;;;;;4.55;0.80;;;;;;;;;;5039055;28;20209;-60
2022/06/09 12:26:21;;;;;;;1.67;0.60;;;;;;;;;;5038118;28;20620;-60
2022/06/09 12:28:59;;;;;;;2.83;0.90;;;;;;;;;;5038833;28;20381;-60
2022/06/09 12:31:26;;;;;;;2.10;0.98;;;;;;;;;;5039345;28;20247;-60
2022/06/09 12:33:55;;;;;;;4.50;0.88;;;;;;;;;;5038842;28;20212;-60
2022/06/09 12:36:33;;;;;;;1.55;0.65;;;;;;;;;;5038045;28;20536;-60
2022/06/09 12:39:03;;;;;;;2.97;0.90;;;;;;;;;;5038753;28;20209;-60
2022/06/09 12:41:31;;;;;;;1.98;0.90;;;;;;;;;;5038525;28;20216;-60
2022/06/09 12:43:59;;;;;;;2.25;0.60;;;;;;;;;;5038630;28;20539;-60
2022/06/09 12:46:27;;;;;;;4.38;0.82;;;;;;;;;;5037685;28;20239;-60
2022/06/09 12:48:54;;;;;;;2.30;0.60;;;;;;;;;;5038839;28;20213;-59
2022/06/09 12:51:26;;;;;;;2.30;0.77;;;;;;;;;;5038679;28;20236;-59
2022/06/09 12:53:54;;;;;;;3.38;0.60;;;;;;;;;;5037543;28;20216;-60
2022/06/09 12:56:25;;;;;;;2.47;0.80;;;;;;;;;;5037656;28;20216;-60
2022/06/09 12:58:52;;;;;;;0.88;0.60;;;;;;;;;;5038706;28;20412;-61
2022/06/09 13:01:19;;;;;;;1.73;0.65;;;;;;;;;;5039902;28;20218;-61
2022/06/09 13:03:47;;;;;;;2.30;0.65;;;;;;;;;;5058525;28;20212;-61
2022/06/09 13:06:20;;;;;;;4.30;0.70;;;;;;;;;;5055152;28;20232;-61
2022/06/09 13:08:48;;;;;;;2.05;0.63;;;;;;;;;;5038418;28;20268;-59
2022/06/09 13:11:19;;;;;;;2.58;0.80;;;;;;;;;;5038247;28;20205;-59
2022/06/09 13:13:47;;;;;;;3.30;0.77;;;;;;;;;;5052799;28;20209;-59
2022/06/09 13:16:15;;;;;;;2.45;0.70;;;;;;;;;;5057809;28;20211;-60
2022/06/09 13:18:44;;;;;;;3.10;1.05;;;;;;;;;;5039099;28;20243;-61
2022/06/09 13:21:14;;;;;;;3.78;0.95;;;;;;;;;;5038013;28;20217;-61
2022/06/09 13:23:42;;;;;;;4.25;0.77;;;;;;;;;;5037751;28;20205;-61
2022/06/09 13:26:13;;;;;;;2.35;0.60;;;;;;;;;;5037310;28;20233;-61
2022/06/09 13:28:40;;;;;;;1.27;0.90;;;;;;;;;;5037268;28;20461;-60
2022/06/09 13:31:24;;;;;;;5.38;0.68;;;;;;;;;;5037793;28;20209;-61
2022/06/09 13:33:53;;;;;;;3.60;0.50;;;;;;;;;;5037473;28;20416;-61
2022/06/09 13:36:25;;;;;;;2.90;0.80;;;;;;;;;;5037159;28;20209;-60
2022/06/09 13:38:51;;;;;;;2.72;0.82;;;;;;;;;;5048860;28;20216;-59
2022/06/09 13:41:19;;;;;;;1.80;0.80;;;;;;;;;;5057312;28;20213;-60
2022/06/09 13:43:47;;;;;;;5.38;0.70;;;;;;;;;;5057203;28;20208;-61
2022/06/09 13:46:16;;;;;;;1.65;0.80;;;;;;;;;;5056986;28;20354;-61
2022/06/09 13:48:47;;;;;;;2.45;0.80;;;;;;;;;;5050723;28;20524;-62
2022/06/09 13:51:21;;;;;;;2.53;0.80;;;;;;;;;;5037674;28;20210;-61
2022/06/09 13:53:50;;;;;;;1.35;0.65;;;;;;;;;;5037291;28;20209;-61
2022/06/09 13:56:17;;;;;;;5.32;0.90;;;;;;;;;;5036751;28;20206;-62
2022/06/09 13:58:43;;;;;;;2.58;0.80;;;;;;;;;;5047927;28;20216;-61
2022/06/09 14:01:10;;;;;;;3.03;0.80;;;;;;;;;;5056844;28;20216;-60
2022/06/09 14:03:41;;;;;;;5.30;0.80;;;;;;;;;;5057164;28;20254;-61
2022/06/09 14:06:09;;;;;;;1.50;0.80;;;;;;;;;;5056547;28;20470;-61
2022/06/09 14:08:37;;;;;;;5.40;0.93;;;;;;;;;;5057070;28;20520;-61
2022/06/09 14:11:05;;;;;;;2.67;0.80;;;;;;;;;;5056470;28;20251;-61
2022/06/09 14:13:31;;;;;;;2.80;0.85;;;;;;;;;;5056673;28;20386;-62
2022/06/09 14:15:57;;;;;;;4.28;0.80;;;;;;;;;;5056332;28;20474;-63
2022/06/09 14:18:25;;;;;;;3.78;0.85;;;;;;;;;;5056508;28;20577;-62
2022/06/09 14:20:53;;;;;;;2.47;0.90;;;;;;;;;;5044161;28;20213;-62
2022/06/09 14:23:20;;;;;;;1.45;0.70;;;;;;;;;;5036637;28;20213;-62
2022/06/09 14:25:47;;;;;;;3.05;0.80;;;;;;;;;;5036185;28;20564;-61
2022/06/09 14:28:13;;;;;;;4.90;0.95;;;;;;;;;;5040898;28;20367;-61
2022/06/09 14:30:39;;;;;;;4.53;1.00;;;;;;;;;;5049927;28;20420;-61
2022/06/09 14:33:09;;;;;;;9.85;0.90;;;;;;;;;;5036581;28;20216;-62
2022/06/09 14:35:35;;;;;;;3.65;1.10;;;;;;;;;;5036363;28;20236;-62
2022/06/09 14:38:03;;;;;;;3.45;1.05;;;;;;;;;;5053195;28;20217;-61
2022/06/09 14:40:31;;;;;;;3.33;0.80;;;;;;;;;;5055609;28;20216;-61
2022/06/09 14:42:57;;;;;;;2.10;0.75;;;;;;;;;;5036818;28;20465;-59
2022/06/09 14:45:23;;;;;;;3.10;0.68;;;;;;;;;;5036241;28;20213;-61
2022/06/09 14:47:50;;;;;;;3.03;0.73;;;;;;;;;;5036375;28;20236;-60
2022/06/09 14:50:18;;;;;;;2.08;0.90;;;;;;;;;;5036560;28;20213;-60
2022/06/09 14:52:44;;;;;;;3.47;1.08;;;;;;;;;;5035709;28;20213;-60
2022/06/09 14:55:13;;;;;;;4.80;1.00;;;;;;;;;;5036075;28;20520;-58
2022/06/09 14:57:39;;;;;;;3.10;1.25;;;;;;;;;;5035990;28;20213;-59
2022/06/09 15:00:07;;;;;;;2.22;0.80;;;;;;;;;;5036195;28;20248;-60
2022/06/09 15:02:33;;;;;;;3.55;0.90;;;;;;;;;;5035808;28;20221;-60
2022/06/09 15:04:59;;;;;;;1.67;0.82;;;;;;;;;;5035810;28;20556;-60
2022/06/09 15:07:26;;;;;;;6.07;1.00;;;;;;;;;;5036057;28;20301;-61
2022/06/09 15:09:52;;;;;;;2.65;1.17;;;;;;;;;;5036359;28;20397;-61
2022/06/09 15:12:20;;;;;;;3.53;1.17;;;;;;;;;;5038377;28;20228;-61
2022/06/09 15:14:46;;;;;;;2.53;1.27;;;;;;;;;;5055650;28;20213;-60
2022/06/09 15:17:13;;;;;;;4.18;1.33;;;;;;;;;;5058876;28;20205;-60